Time,TemperatureF,DewpointF,PressureIn,WindDirection,WindDirectionDegrees,WindSpeedMPH,WindSpeedGustMPH,Humidity,HourlyPrecipIn,Conditions,Clouds,dailyrainin,SoftwareType,DateUTC
2013-11-05 00:00:00,54.8,35.0,30.06,NW,320,0.0,-999.0,47,-99.99,,,0.00,weatherlink.com 1.10,2013-11-05 08:00:00,
2013-11-05 00:15:00,55.1,34.0,30.07,North,350,0.0,-999.0,45,-99.99,,,0.00,weatherlink.com 1.10,2013-11-05 08:15:00,
2013-11-05 00:30:00,55.4,31.0,30.06,East,100,2.0,-999.0,40,-99.99,,,0.00,weatherlink.com 1.10,2013-11-05 08:30:00,
2013-11-05 00:45:00,56.0,31.0,30.06,SW,220,0.0,-999.0,38,-99.99,,,0.00,weatherlink.com 1.10,2013-11-05 08:45:00,
2013-11-05 01:00:00,55.7,29.0,30.05,ESE,120,0.0,-999.0,36,-99.99,,,0.00,weatherlink.com 1.10,2013-11-05 09:00:00,
2013-11-05 01:15:00,56.2,29.0,30.05,ENE,78,0.0,-999.0,35,-99.99,,,0.00,weatherlink.com 1.10,2013-11-05 09:15:00,
2013-11-05 01:30:00,56.6,30.0,30.06,NE,36,0.0,-999.0,36,-99.99,,,0.00,weatherlink.com 1.10,2013-11-05 09:30:00,
2013-11-05 01:45:00,56.5,30.0,30.04,East,93,0.0,-999.0,37,-99.99,,,0.00,weatherlink.com 1.10,2013-11-05 09:45:00,
2013-11-05 02:00:00,56.0,31.0,30.05,WNW,291,0.0,-999.0,39,-99.99,,,0.00,weatherlink.com 1.10,2013-11-05 10:00:00,
2013-11-05 02:15:00,55.4,31.0,30.04,WNW,291,0.0,-999.0,40,-99.99,,,0.00,weatherlink.com 1.10,2013-11-05 10:15:00,
2013-11-05 02:30:00,54.7,31.0,30.05,WNW,291,0.0,-999.0,40,-99.99,,,0.00,weatherlink.com 1.10,2013-11-05 10:30:00,
2013-11-05 02:45:00,54.5,30.0,30.05,WNW,291,0.0,-999.0,39,-99.99,,,0.00,weatherlink.com 1.10,2013-11-05 10:45:00,
2013-11-05 03:00:00,55.4,30.0,30.05,WNW,293,0.0,-999.0,38,-99.99,,,0.00,weatherlink.com 1.10,2013-11-05 11:00:00,
2013-11-05 03:15:00,55.4,30.0,30.07,WNW,293,0.0,-999.0,38,-99.99,,,0.00,weatherlink.com 1.10,2013-11-05 11:15:00,
2013-11-05 03:30:00,54.2,32.0,30.07,WNW,293,0.0,-999.0,43,-99.99,,,0.00,weatherlink.com 1.10,2013-11-05 11:30:00,
2013-11-05 03:45:00,52.8,32.0,30.08,WNW,293,0.0,-999.0,46,-99.99,,,0.00,weatherlink.com 1.10,2013-11-05 11:45:00,
2013-11-05 04:00:00,51.4,33.0,30.09,WNW,293,0.0,-999.0,49,-99.99,,,0.00,weatherlink.com 1.10,2013-11-05 12:00:00,
2013-11-05 04:15:00,51.1,33.0,30.09,WNW,293,0.0,-999.0,50,-99.99,,,0.00,weatherlink.com 1.10,2013-11-05 12:15:00,
2013-11-05 04:30:00,50.4,34.0,30.09,WNW,293,0.0,-999.0,53,-99.99,,,0.00,weatherlink.com 1.10,2013-11-05 12:30:00,
2013-11-05 04:45:00,49.6,33.0,30.09,WNW,293,0.0,-999.0,54,-99.99,,,0.00,weatherlink.com 1.10,2013-11-05 12:45:00,
2013-11-05 05:00:00,49.5,33.0,30.09,WNW,293,0.0,-999.0,54,-99.99,,,0.00,weatherlink.com 1.10,2013-11-05 13:00:00,
2013-11-05 05:15:00,49.4,33.0,30.10,WNW,293,0.0,-999.0,54,-99.99,,,0.00,weatherlink.com 1.10,2013-11-05 13:15:00,
2013-11-05 05:30:00,49.1,33.0,30.10,WNW,293,0.0,-999.0,55,-99.99,,,0.00,weatherlink.com 1.10,2013-11-05 13:30:00,
2013-11-05 05:45:00,48.5,34.0,30.10,WNW,293,0.0,-999.0,57,-99.99,,,0.00,weatherlink.com 1.10,2013-11-05 13:45:00,
2013-11-05 06:00:00,48.9,34.0,30.11,WNW,293,0.0,-999.0,56,-99.99,,,0.00,weatherlink.com 1.10,2013-11-05 14:00:00,
2013-11-05 06:15:00,48.5,34.0,30.11,WNW,293,0.0,-999.0,58,-99.99,,,0.00,weatherlink.com 1.10,2013-11-05 14:15:00,
2013-11-05 06:31:00,48.0,34.0,30.12,WNW,293,0.0,-999.0,58,-99.99,,,0.00,weatherlink.com 1.10,2013-11-05 14:31:00,
2013-11-05 06:46:00,48.2,34.0,30.12,WNW,293,0.0,-999.0,58,-99.99,,,0.00,weatherlink.com 1.10,2013-11-05 14:46:00,
2013-11-05 07:01:00,47.9,34.0,30.13,WNW,293,0.0,-999.0,58,-99.99,,,0.00,weatherlink.com 1.10,2013-11-05 15:01:00,
2013-11-05 07:16:00,48.2,34.0,30.13,WNW,293,0.0,-999.0,58,-99.99,,,0.00,weatherlink.com 1.10,2013-11-05 15:16:00,
2013-11-05 07:31:00,49.4,34.0,30.14,WNW,296,0.0,-999.0,55,-99.99,,,0.00,weatherlink.com 1.10,2013-11-05 15:31:00,
2013-11-05 07:46:00,49.9,35.0,30.15,WNW,296,0.0,-999.0,58,-99.99,,,0.00,weatherlink.com 1.10,2013-11-05 15:46:00,
2013-11-05 08:01:00,50.7,35.0,30.15,WNW,296,0.0,-999.0,56,-99.99,,,0.00,weatherlink.com 1.10,2013-11-05 16:01:00,
2013-11-05 08:16:00,52.3,37.0,30.16,WNW,296,0.0,-999.0,56,-99.99,,,0.00,weatherlink.com 1.10,2013-11-05 16:16:00,
2013-11-05 08:31:00,56.0,35.0,30.16,WNW,296,0.0,-999.0,45,-99.99,,,0.00,weatherlink.com 1.10,2013-11-05 16:31:00,
2013-11-05 08:46:00,61.6,32.0,30.16,WNW,296,0.0,-999.0,33,-99.99,,,0.00,weatherlink.com 1.10,2013-11-05 16:46:00,
2013-11-05 09:01:00,66.1,31.0,30.17,WNW,296,0.0,-999.0,27,-99.99,,,0.00,weatherlink.com 1.10,2013-11-05 17:01:00,
2013-11-05 09:16:00,67.8,31.0,30.17,WNW,296,0.0,-999.0,25,-99.99,,,0.00,weatherlink.com 1.10,2013-11-05 17:16:00,
2013-11-05 09:31:00,67.4,31.0,30.17,WNW,296,0.0,-999.0,26,-99.99,,,0.00,weatherlink.com 1.10,2013-11-05 17:31:00,
2013-11-05 09:46:00,66.6,31.0,30.16,SW,219,0.0,-999.0,27,-99.99,,,0.00,weatherlink.com 1.10,2013-11-05 17:46:00,
2013-11-05 10:01:00,67.4,33.0,30.16,SW,220,0.0,-999.0,28,-99.99,,,0.00,weatherlink.com 1.10,2013-11-05 18:01:00,
2013-11-05 10:15:00,67.4,35.0,30.17,SW,230,0.0,-999.0,30,-99.99,,,0.00,weatherlink.com 1.10,2013-11-05 18:15:00,
2013-11-05 10:30:00,68.1,34.0,30.17,SW,230,0.0,-999.0,28,-99.99,,,0.00,weatherlink.com 1.10,2013-11-05 18:30:00,
2013-11-05 10:46:00,69.1,36.0,30.17,SW,230,0.0,-999.0,30,-99.99,,,0.00,weatherlink.com 1.10,2013-11-05 18:46:00,
2013-11-05 11:01:00,69.4,34.0,30.17,SW,231,0.0,-999.0,27,-99.99,,,0.00,weatherlink.com 1.10,2013-11-05 19:01:00,
2013-11-05 11:15:00,70.1,34.0,30.17,West,259,0.0,-999.0,26,-99.99,,,0.00,weatherlink.com 1.10,2013-11-05 19:15:00,
2013-11-05 11:30:00,70.6,32.0,30.15,SW,236,0.0,-999.0,24,-99.99,,,0.00,weatherlink.com 1.10,2013-11-05 19:30:00,
2013-11-05 11:46:00,71.6,33.0,30.15,SSW,195,0.0,-999.0,24,-99.99,,,0.00,weatherlink.com 1.10,2013-11-05 19:46:00,
2013-11-05 12:01:00,72.3,33.0,30.15,SW,230,0.0,-999.0,24,-99.99,,,0.00,weatherlink.com 1.10,2013-11-05 20:01:00,
2013-11-05 12:16:00,70.9,31.0,30.15,SW,222,2.0,-999.0,23,-99.99,,,0.00,weatherlink.com 1.10,2013-11-05 20:16:00,
2013-11-05 12:31:00,71.1,31.0,30.15,South,188,0.0,-999.0,23,-99.99,,,0.00,weatherlink.com 1.10,2013-11-05 20:31:00,
2013-11-05 12:46:00,72.0,33.0,30.14,SSW,205,0.0,-999.0,24,-99.99,,,0.00,weatherlink.com 1.10,2013-11-05 20:46:00,
2013-11-05 13:01:00,72.1,32.0,30.13,SW,222,1.0,-999.0,23,-99.99,,,0.00,weatherlink.com 1.10,2013-11-05 21:01:00,
2013-11-05 13:17:00,72.7,34.0,30.12,SW,232,0.0,-999.0,24,-99.99,,,0.00,weatherlink.com 1.10,2013-11-05 21:17:00,
2013-11-05 13:32:00,73.7,35.0,30.12,SW,227,0.0,-999.0,24,-99.99,,,0.00,weatherlink.com 1.10,2013-11-05 21:32:00,
2013-11-05 13:47:00,73.7,34.0,30.12,SW,234,0.0,-999.0,23,-99.99,,,0.00,weatherlink.com 1.10,2013-11-05 21:47:00,
2013-11-05 14:02:00,72.5,36.0,30.12,SW,220,0.0,-999.0,26,-99.99,,,0.00,weatherlink.com 1.10,2013-11-05 22:02:00,
2013-11-05 14:16:00,73.0,35.0,30.12,SW,220,0.0,-999.0,25,-99.99,,,0.00,weatherlink.com 1.10,2013-11-05 22:16:00,
2013-11-05 14:31:00,73.5,36.0,30.12,SW,234,0.0,-999.0,25,-99.99,,,0.00,weatherlink.com 1.10,2013-11-05 22:31:00,
2013-11-05 14:47:00,73.5,34.0,30.12,SW,217,0.0,-999.0,24,-99.99,,,0.00,weatherlink.com 1.10,2013-11-05 22:47:00,
2013-11-05 15:02:00,73.3,36.0,30.12,SW,234,1.0,-999.0,26,-99.99,,,0.00,weatherlink.com 1.10,2013-11-05 23:02:00,
2013-11-05 15:16:00,72.3,36.0,30.12,SSW,205,0.0,-999.0,27,-99.99,,,0.00,weatherlink.com 1.10,2013-11-05 23:16:00,
2013-11-05 15:31:00,71.3,37.0,30.13,West,277,0.0,-999.0,29,-99.99,,,0.00,weatherlink.com 1.10,2013-11-05 23:31:00,
2013-11-05 15:46:00,70.6,37.0,30.13,West,277,0.0,-999.0,29,-99.99,,,0.00,weatherlink.com 1.10,2013-11-05 23:46:00,
2013-11-05 16:01:00,70.1,36.0,30.13,ESE,113,0.0,-999.0,29,-99.99,,,0.00,weatherlink.com 1.10,2013-11-06 00:01:00,
2013-11-05 16:17:00,68.3,36.0,30.13,ESE,117,0.0,-999.0,30,-99.99,,,0.00,weatherlink.com 1.10,2013-11-06 00:17:00,
2013-11-05 16:32:00,67.1,35.0,30.12,ESE,117,0.0,-999.0,31,-99.99,,,0.00,weatherlink.com 1.10,2013-11-06 00:32:00,
2013-11-05 16:47:00,66.1,36.0,30.12,ESE,117,0.0,-999.0,33,-99.99,,,0.00,weatherlink.com 1.10,2013-11-06 00:47:00,
2013-11-05 17:02:00,64.8,37.0,30.12,ESE,117,0.0,-999.0,36,-99.99,,,0.00,weatherlink.com 1.10,2013-11-06 01:02:00,
2013-11-05 17:17:00,63.4,37.0,30.13,ESE,117,0.0,-999.0,38,-99.99,,,0.00,weatherlink.com 1.10,2013-11-06 01:17:00,
2013-11-05 17:32:00,62.0,38.0,30.14,ESE,117,0.0,-999.0,42,-99.99,,,0.00,weatherlink.com 1.10,2013-11-06 01:32:00,
2013-11-05 17:47:00,60.5,38.0,30.14,ESE,117,0.0,-999.0,44,-99.99,,,0.00,weatherlink.com 1.10,2013-11-06 01:47:00,
2013-11-05 18:02:00,59.3,39.0,30.15,ESE,117,0.0,-999.0,47,-99.99,,,0.00,weatherlink.com 1.10,2013-11-06 02:02:00,
2013-11-05 18:17:00,58.3,38.0,30.15,ESE,117,0.0,-999.0,48,-99.99,,,0.00,weatherlink.com 1.10,2013-11-06 02:17:00,
2013-11-05 18:32:00,57.3,38.0,30.15,ESE,117,0.0,-999.0,49,-99.99,,,0.00,weatherlink.com 1.10,2013-11-06 02:32:00,
2013-11-05 18:47:00,56.7,38.0,30.16,ESE,117,0.0,-999.0,50,-99.99,,,0.00,weatherlink.com 1.10,2013-11-06 02:47:00,
2013-11-05 19:02:00,56.2,38.0,30.16,ESE,117,0.0,-999.0,50,-99.99,,,0.00,weatherlink.com 1.10,2013-11-06 03:02:00,
2013-11-05 19:17:00,55.4,37.0,30.16,ESE,117,0.0,-999.0,51,-99.99,,,0.00,weatherlink.com 1.10,2013-11-06 03:17:00,
2013-11-05 19:32:00,54.8,38.0,30.16,ESE,117,0.0,-999.0,53,-99.99,,,0.00,weatherlink.com 1.10,2013-11-06 03:32:00,
2013-11-05 19:47:00,54.5,36.0,30.16,ESE,117,0.0,-999.0,51,-99.99,,,0.00,weatherlink.com 1.10,2013-11-06 03:47:00,
2013-11-05 20:02:00,54.2,37.0,30.17,ESE,117,0.0,-999.0,52,-99.99,,,0.00,weatherlink.com 1.10,2013-11-06 04:02:00,
2013-11-05 20:17:00,54.1,37.0,30.17,ESE,117,0.0,-999.0,53,-99.99,,,0.00,weatherlink.com 1.10,2013-11-06 04:17:00,
2013-11-05 20:32:00,53.9,37.0,30.17,ESE,117,0.0,-999.0,54,-99.99,,,0.00,weatherlink.com 1.10,2013-11-06 04:32:00,
2013-11-05 20:47:00,53.6,37.0,30.18,ESE,117,0.0,-999.0,54,-99.99,,,0.00,weatherlink.com 1.10,2013-11-06 04:47:00,
2013-11-05 21:02:00,53.1,38.0,30.19,ESE,117,0.0,-999.0,56,-99.99,,,0.00,weatherlink.com 1.10,2013-11-06 05:02:00,
2013-11-05 21:17:00,52.9,38.0,30.18,ESE,117,0.0,-999.0,57,-99.99,,,0.00,weatherlink.com 1.10,2013-11-06 05:17:00,
2013-11-05 21:32:00,52.8,38.0,30.19,ESE,117,0.0,-999.0,57,-99.99,,,0.00,weatherlink.com 1.10,2013-11-06 05:32:00,
2013-11-05 21:47:00,52.5,37.0,30.20,ESE,117,0.0,-999.0,57,-99.99,,,0.00,weatherlink.com 1.10,2013-11-06 05:47:00,
2013-11-05 22:02:00,52.2,38.0,30.20,ESE,117,0.0,-999.0,58,-99.99,,,0.00,weatherlink.com 1.10,2013-11-06 06:02:00,
2013-11-05 22:17:00,52.0,37.0,30.21,ESE,117,0.0,-999.0,58,-99.99,,,0.00,weatherlink.com 1.10,2013-11-06 06:17:00,
2013-11-05 22:32:00,51.9,38.0,30.21,ESE,117,0.0,-999.0,59,-99.99,,,0.00,weatherlink.com 1.10,2013-11-06 06:32:00,
2013-11-05 22:47:00,51.9,38.0,30.20,ESE,117,0.0,-999.0,59,-99.99,,,0.00,weatherlink.com 1.10,2013-11-06 06:47:00,
2013-11-05 23:02:00,51.9,38.0,30.20,ESE,117,0.0,-999.0,59,-99.99,,,0.00,weatherlink.com 1.10,2013-11-06 07:02:00,
2013-11-05 23:17:00,51.9,38.0,30.20,ESE,117,0.0,-999.0,59,-99.99,,,0.00,weatherlink.com 1.10,2013-11-06 07:17:00,
2013-11-05 23:32:00,51.7,38.0,30.20,ESE,117,0.0,-999.0,59,-99.99,,,0.00,weatherlink.com 1.10,2013-11-06 07:32:00,
2013-11-05 23:47:00,51.4,38.0,30.19,ESE,117,0.0,-999.0,60,-99.99,,,0.00,weatherlink.com 1.10,2013-11-06 07:47:00,